createdAt,value
2023-01-25T00:01:18.651Z,101304.46
2023-01-25T00:03:46.802Z,101304.63
2023-01-25T00:06:14.962Z,101305.30
2023-01-25T00:08:43.270Z,101305.09
2023-01-25T00:11:11.533Z,101303.23
2023-01-25T00:13:40.192Z,101302.37
2023-01-25T00:16:08.964Z,101303.20
2023-01-25T00:18:37.212Z,101306.36
2023-01-25T00:21:15.535Z,101303.64
2023-01-25T00:23:43.824Z,101302.15
2023-01-25T00:26:12.318Z,101293.46
2023-01-25T00:28:40.381Z,101291.71
2023-01-25T00:31:10.129Z,101288.73
2023-01-25T00:33:40.512Z,101291.90
2023-01-25T00:36:34.904Z,101284.30
2023-01-25T00:39:03.528Z,101284.00
2023-01-25T00:41:31.717Z,101282.89
2023-01-25T00:44:00.024Z,101280.51
2023-01-25T00:46:28.050Z,101274.66
2023-01-25T00:48:56.425Z,101272.79
2023-01-25T00:51:24.954Z,101272.83
2023-01-25T00:53:53.616Z,101274.49
2023-01-25T00:56:22.182Z,101271.73
2023-01-25T00:58:50.664Z,101271.95
2023-01-25T01:01:20.038Z,101268.44
2023-01-25T01:03:48.557Z,101265.63
2023-01-25T01:06:16.841Z,101261.05
2023-01-25T01:08:51.875Z,101264.90
2023-01-25T01:11:22.521Z,101260.79
2023-01-25T01:13:50.728Z,101265.70
2023-01-25T01:16:18.982Z,101270.02
2023-01-25T01:18:47.469Z,101269.14
2023-01-25T01:21:15.677Z,101265.79
2023-01-25T01:23:44.108Z,101268.81
2023-01-25T01:26:14.892Z,101269.94
2023-01-25T01:28:43.010Z,101265.88
2023-01-25T01:31:15.159Z,101264.55
2023-01-25T01:33:51.369Z,101266.98
2023-01-25T01:36:20.812Z,101268.41
2023-01-25T01:38:48.965Z,101265.80
2023-01-25T01:41:17.676Z,101260.41
2023-01-25T01:43:46.416Z,101258.77
2023-01-25T01:46:34.717Z,101258.46
2023-01-25T01:49:04.858Z,101256.01
2023-01-25T01:52:03.463Z,101258.09
2023-01-25T01:54:38.837Z,101261.70
2023-01-25T01:57:15.591Z,101255.00
2023-01-25T01:59:57.153Z,101253.08
2023-01-25T02:02:25.477Z,101246.68
2023-01-25T02:04:54.970Z,101244.26
2023-01-25T02:07:27.859Z,101242.48
2023-01-25T02:09:57.001Z,101241.42
2023-01-25T02:12:25.197Z,101241.88
2023-01-25T02:14:54.190Z,101242.70
2023-01-25T02:17:30.997Z,101237.34
2023-01-25T02:20:19.673Z,101232.84
2023-01-25T02:22:59.607Z,101230.07
2023-01-25T02:25:28.356Z,101229.75
2023-01-25T02:28:03.769Z,101231.83
2023-01-25T02:30:32.227Z,101226.95
2023-01-25T02:33:00.675Z,101229.48
2023-01-25T02:35:40.019Z,101228.42
2023-01-25T02:38:08.423Z,101227.89
2023-01-25T02:40:41.699Z,101226.14
2023-01-25T02:43:10.120Z,101228.09
2023-01-25T02:45:38.374Z,101226.52
2023-01-25T02:48:06.953Z,101226.02
2023-01-25T02:50:35.645Z,101230.20
2023-01-25T02:53:04.050Z,101232.95
2023-01-25T02:55:32.559Z,101232.64
2023-01-25T02:58:01.208Z,101227.69
2023-01-25T03:00:29.801Z,101228.23
2023-01-25T03:02:58.077Z,101225.99
2023-01-25T03:05:29.335Z,101224.42
2023-01-25T03:07:57.614Z,101226.58
2023-01-25T03:10:26.407Z,101223.78
2023-01-25T03:12:55.732Z,101225.91
2023-01-25T03:15:23.818Z,101224.45
2023-01-25T03:17:52.005Z,101225.85
2023-01-25T03:20:20.120Z,101228.92
2023-01-25T03:22:48.435Z,101227.92
2023-01-25T03:25:16.983Z,101223.94
2023-01-25T03:27:56.261Z,101228.25
2023-01-25T03:30:24.438Z,101228.41
2023-01-25T03:32:53.159Z,101228.92
2023-01-25T03:35:22.623Z,101229.94
2023-01-25T03:37:50.718Z,101232.45
2023-01-25T03:40:19.631Z,101236.73
2023-01-25T03:42:52.371Z,101230.95
2023-01-25T03:45:20.599Z,101239.30
2023-01-25T03:47:48.904Z,101241.88
2023-01-25T03:50:17.746Z,101231.55
2023-01-25T03:52:59.867Z,101233.76
2023-01-25T03:55:32.395Z,101235.77
2023-01-25T03:58:00.796Z,101238.57
2023-01-25T04:00:29.183Z,101238.78
2023-01-25T04:03:00.161Z,101239.30
2023-01-25T04:05:28.634Z,101239.14
2023-01-25T04:07:57.243Z,101240.70
2023-01-25T04:10:32.078Z,101237.91
2023-01-25T04:13:00.976Z,101239.09
2023-01-25T04:15:30.215Z,101237.91
2023-01-25T04:18:00.924Z,101238.42
2023-01-25T04:20:29.820Z,101238.92
2023-01-25T04:22:58.221Z,101241.14
2023-01-25T04:25:31.130Z,101238.98
2023-01-25T04:27:59.563Z,101240.02
2023-01-25T04:30:27.750Z,101238.81
2023-01-25T04:32:56.630Z,101240.80
2023-01-25T04:35:31.754Z,101240.86
2023-01-25T04:38:01.074Z,101240.70
2023-01-25T04:40:37.168Z,101238.16
2023-01-25T04:43:06.612Z,101240.58
2023-01-25T04:45:36.629Z,101239.10
2023-01-25T04:48:12.444Z,101238.77
2023-01-25T04:50:45.877Z,101237.88
2023-01-25T04:53:14.411Z,101243.08
2023-01-25T04:55:50.335Z,101238.52
2023-01-25T04:58:22.338Z,101243.09
2023-01-25T05:00:52.409Z,101239.65
2023-01-25T05:03:27.411Z,101240.73
2023-01-25T05:06:10.471Z,101242.71
2023-01-25T05:08:43.128Z,101241.23
2023-01-25T05:11:19.397Z,101245.59
2023-01-25T05:14:14.416Z,101247.89
2023-01-25T05:16:45.533Z,101251.84
2023-01-25T05:19:16.696Z,101250.79
2023-01-25T05:22:00.544Z,101250.79
2023-01-25T05:24:39.307Z,101247.86
2023-01-25T05:27:26.325Z,101241.93
2023-01-25T05:29:55.188Z,101245.05
2023-01-25T05:33:01.720Z,101241.55
2023-01-25T05:35:36.560Z,101233.90
2023-01-25T05:38:11.998Z,101233.58
2023-01-25T05:40:46.474Z,101237.75
2023-01-25T05:43:18.037Z,101238.07
2023-01-25T05:46:00.115Z,101239.24
2023-01-25T05:48:34.183Z,101239.19
2023-01-25T05:51:02.670Z,101238.52
2023-01-25T05:53:45.665Z,101239.48
2023-01-25T05:56:14.759Z,101243.90
2023-01-25T05:58:47.534Z,101244.83
2023-01-25T06:01:23.204Z,101245.25
2023-01-25T06:03:55.526Z,101245.91
2023-01-25T06:06:30.752Z,101245.21
2023-01-25T06:09:06.190Z,101244.63
2023-01-25T06:11:45.435Z,101242.73
2023-01-25T06:14:17.007Z,101241.77
2023-01-25T06:20:23.084Z,101235.64
2023-01-25T06:23:11.293Z,101240.36
2023-01-25T06:25:43.827Z,101244.05
2023-01-25T06:28:14.251Z,101248.23
2023-01-25T06:30:42.995Z,101237.36
2023-01-25T06:33:11.629Z,101231.83
2023-01-25T06:35:43.560Z,101233.39
2023-01-25T06:38:25.428Z,101235.10
2023-01-25T06:41:04.661Z,101238.98
2023-01-25T06:43:36.320Z,101237.02
2023-01-25T06:46:07.209Z,101236.66
2023-01-25T06:48:44.398Z,101235.48
2023-01-25T06:51:15.311Z,101233.86
2023-01-25T06:53:46.969Z,101233.86
2023-01-25T06:56:33.111Z,101232.42
2023-01-25T06:59:04.166Z,101229.87
2023-01-25T07:01:33.834Z,101230.66
2023-01-25T07:04:02.571Z,101234.14
2023-01-25T07:06:33.372Z,101230.30
2023-01-25T07:09:03.783Z,101224.85
2023-01-25T07:11:32.046Z,101228.11
2023-01-25T07:14:00.532Z,101229.48
2023-01-25T07:16:29.562Z,101226.23
2023-01-25T07:18:57.640Z,101226.76
2023-01-25T07:21:34.659Z,101227.17
2023-01-25T07:24:09.019Z,101228.34
2023-01-25T07:26:39.884Z,101227.61
2023-01-25T07:29:12.689Z,101225.48
2023-01-25T07:31:46.220Z,101223.15
2023-01-25T07:34:16.902Z,101224.77
2023-01-25T07:36:47.060Z,101222.78
2023-01-25T07:39:15.317Z,101220.36
2023-01-25T07:44:36.023Z,101214.05
2023-01-25T07:47:13.940Z,101214.86
2023-01-25T07:49:47.108Z,101214.44
2023-01-25T07:52:15.640Z,101214.45
2023-01-25T07:54:49.826Z,101211.80
2023-01-25T07:57:33.940Z,101212.40
2023-01-25T08:00:02.767Z,101211.91
2023-01-25T08:02:43.908Z,101209.04
2023-01-25T08:05:12.180Z,101209.59
2023-01-25T08:07:42.101Z,101212.40
2023-01-25T08:10:11.274Z,101209.59
2023-01-25T08:12:40.335Z,101207.06
2023-01-25T08:15:11.818Z,101208.38
2023-01-25T08:17:40.779Z,101214.95
2023-01-25T08:20:09.887Z,101215.39
2023-01-25T08:22:38.967Z,101214.13
2023-01-25T08:25:08.200Z,101211.70
2023-01-25T08:27:38.205Z,101211.57
2023-01-25T08:30:08.814Z,101209.77
2023-01-25T08:32:38.020Z,101208.98
2023-01-25T08:35:10.772Z,101204.84
2023-01-25T08:37:39.338Z,101211.27
2023-01-25T08:40:08.457Z,101206.21
2023-01-25T08:42:43.310Z,101204.25
2023-01-25T08:45:11.880Z,101203.36
2023-01-25T08:47:51.205Z,101206.66
2023-01-25T08:50:22.989Z,101208.86
2023-01-25T08:52:51.999Z,101208.83
2023-01-25T08:55:24.664Z,101206.56
2023-01-25T08:57:56.690Z,101208.45
2023-01-25T09:00:25.823Z,101215.48
2023-01-25T09:02:54.155Z,101210.59
2023-01-25T09:05:22.221Z,101207.98
2023-01-25T09:07:50.508Z,101206.37
2023-01-25T09:10:18.722Z,101205.58
2023-01-25T09:12:46.948Z,101205.48
2023-01-25T09:15:15.288Z,101203.52
2023-01-25T09:17:43.938Z,101203.98
2023-01-25T09:20:12.467Z,101198.95
2023-01-25T09:22:40.834Z,101201.91
2023-01-25T09:25:10.213Z,101199.54
2023-01-25T09:27:38.426Z,101202.51
2023-01-25T09:30:13.438Z,101203.05
2023-01-25T09:32:45.533Z,101197.27
2023-01-25T09:35:13.796Z,101196.80
2023-01-25T09:37:42.068Z,101197.56
2023-01-25T09:40:30.820Z,101193.29
2023-01-25T09:43:26.214Z,101189.85
2023-01-25T09:45:54.419Z,101183.81
2023-01-25T09:48:35.622Z,101186.61
2023-01-25T09:51:51.755Z,101185.48
2023-01-25T09:54:19.747Z,101179.07
2023-01-25T09:56:49.036Z,101176.19
2023-01-25T09:59:19.003Z,101173.69
2023-01-25T10:01:47.787Z,101167.27
2023-01-25T10:04:24.012Z,101168.77
2023-01-25T10:07:00.087Z,101162.98
2023-01-25T10:09:47.393Z,101158.38
2023-01-25T10:12:19.499Z,101158.80
2023-01-25T10:14:48.093Z,101154.03
2023-01-25T10:17:45.865Z,101147.92
2023-01-25T10:20:26.826Z,101142.04
2023-01-25T10:23:06.828Z,101137.63
2023-01-25T10:25:46.392Z,101133.72
2023-01-25T10:28:37.133Z,101126.58
2023-01-25T10:31:07.735Z,101124.85
2023-01-25T10:33:40.229Z,101122.02
2023-01-25T10:36:10.142Z,101121.42
2023-01-25T10:38:42.416Z,101121.77
2023-01-25T10:41:27.132Z,101113.19
2023-01-25T10:44:13.817Z,101110.77
2023-01-25T10:46:42.510Z,101104.93
2023-01-25T10:49:20.992Z,101100.91
2023-01-25T10:51:50.388Z,101103.54
2023-01-25T10:54:18.618Z,101100.39
2023-01-25T10:56:46.762Z,101096.59
2023-01-25T10:59:16.538Z,101092.02
2023-01-25T11:01:44.852Z,101091.48
2023-01-25T11:04:31.382Z,101093.94
2023-01-25T11:06:59.947Z,101085.73
2023-01-25T11:09:38.922Z,101082.80
2023-01-25T11:12:18.490Z,101081.88
2023-01-25T11:14:50.084Z,101078.27
2023-01-25T11:17:30.586Z,101075.70
2023-01-25T11:20:12.474Z,101075.48
2023-01-25T11:22:53.680Z,101071.45
2023-01-25T11:25:25.896Z,101068.38
2023-01-25T11:28:28.947Z,101071.80
2023-01-25T11:30:57.143Z,101069.95
2023-01-25T11:33:26.686Z,101068.26
2023-01-25T11:36:05.670Z,101069.45
2023-01-25T11:38:34.294Z,101066.11
2023-01-25T11:41:25.052Z,101061.17
2023-01-25T11:43:58.484Z,101055.21
2023-01-25T11:46:36.262Z,101052.14
2023-01-25T11:49:28.064Z,101050.44
2023-01-25T11:52:25.520Z,101047.06
2023-01-25T11:55:18.142Z,101044.33
2023-01-25T11:58:27.062Z,101041.77
2023-01-25T12:01:06.887Z,101046.08
2023-01-25T12:03:55.463Z,101051.48
2023-01-25T12:06:32.542Z,101049.46
2023-01-25T12:09:14.215Z,101045.96
2023-01-25T12:11:46.385Z,101039.40
2023-01-25T12:14:37.300Z,101039.50
2023-01-25T12:17:24.811Z,101038.29
2023-01-25T12:20:14.818Z,101037.38
2023-01-25T12:22:52.969Z,101039.56
2023-01-25T12:25:37.776Z,101048.50
2023-01-25T12:28:05.920Z,101046.43
2023-01-25T12:30:54.614Z,101044.20
2023-01-25T12:33:34.762Z,101037.88
2023-01-25T12:36:15.077Z,101039.06
2023-01-25T12:38:50.975Z,101042.40
2023-01-25T12:41:22.897Z,101041.39
2023-01-25T12:44:21.856Z,101040.52
2023-01-25T12:47:21.148Z,101033.61
2023-01-25T12:49:55.731Z,101030.99
2023-01-25T12:52:41.659Z,101032.33
2023-01-25T12:55:17.323Z,101036.98
2023-01-25T12:58:05.977Z,101031.16
2023-01-25T13:00:40.173Z,101029.67
2023-01-25T13:03:25.805Z,101026.29
2023-01-25T13:05:58.839Z,101025.66
2023-01-25T13:09:08.363Z,101031.52
2023-01-25T13:11:42.415Z,101023.96
2023-01-25T13:14:23.558Z,101022.39
2023-01-25T13:17:15.968Z,101024.02
2023-01-25T13:19:45.095Z,101030.11
2023-01-25T13:22:44.658Z,101026.73
2023-01-25T13:25:23.065Z,101020.25
2023-01-25T13:27:57.881Z,101019.09
2023-01-25T13:30:34.456Z,101013.81
2023-01-25T13:33:07.162Z,101013.98
2023-01-25T13:35:41.696Z,101007.39
2023-01-25T13:38:29.105Z,101009.22
2023-01-25T13:41:12.495Z,101002.64
2023-01-25T13:43:42.460Z,100996.04
2023-01-25T13:46:12.865Z,100997.13
2023-01-25T13:48:46.754Z,100999.04
2023-01-25T13:51:15.067Z,100994.27
2023-01-25T13:53:43.542Z,100994.67
2023-01-25T13:56:25.200Z,100997.52
2023-01-25T13:58:53.437Z,100991.28
2023-01-25T14:01:23.875Z,100986.55
2023-01-25T14:04:03.965Z,100985.63
2023-01-25T14:06:34.791Z,100980.67
2023-01-25T14:09:07.920Z,100983.35
2023-01-25T14:11:39.966Z,100985.31
2023-01-25T14:14:29.156Z,100979.67
2023-01-25T14:17:18.076Z,100981.77
2023-01-25T14:19:50.511Z,100986.56
2023-01-25T14:22:33.849Z,100983.08
2023-01-25T14:25:17.319Z,100985.31
2023-01-25T14:27:56.347Z,100974.91
2023-01-25T14:30:29.388Z,100971.64
2023-01-25T14:33:20.993Z,100973.34
2023-01-25T14:35:55.716Z,100972.96
2023-01-25T14:38:38.256Z,100973.59
2023-01-25T14:41:28.486Z,100972.05
2023-01-25T14:43:59.581Z,100974.59
2023-01-25T14:46:38.994Z,100974.15
2023-01-25T14:49:15.777Z,100974.70
2023-01-25T14:51:49.002Z,100974.23
2023-01-25T14:54:28.853Z,100972.59
2023-01-25T14:57:02.481Z,100971.86
2023-01-25T14:59:47.217Z,100968.89
2023-01-25T15:02:40.020Z,100966.48
2023-01-25T15:05:35.162Z,100964.42
2023-01-25T15:08:09.433Z,100965.10
2023-01-25T15:11:24.631Z,100963.71
2023-01-25T15:14:04.396Z,100962.73
2023-01-25T15:16:36.326Z,100960.36
2023-01-25T15:19:27.747Z,100954.55
2023-01-25T15:21:59.354Z,100954.40
2023-01-25T15:24:27.564Z,100955.02
2023-01-25T15:26:56.490Z,100955.25
2023-01-25T15:29:27.233Z,100952.16
2023-01-25T15:31:55.936Z,100953.69
2023-01-25T15:34:29.323Z,100951.91
2023-01-25T15:36:57.460Z,100952.65
2023-01-25T15:39:26.698Z,100948.45
2023-01-25T15:41:56.053Z,100946.93
2023-01-25T15:44:24.155Z,100944.71
2023-01-25T15:46:52.307Z,100942.58
2023-01-25T15:49:28.306Z,100939.22
2023-01-25T15:51:56.467Z,100937.17
2023-01-25T15:54:27.086Z,100937.72
2023-01-25T15:56:56.157Z,100937.73
2023-01-25T15:59:25.129Z,100929.08
2023-01-25T16:01:53.384Z,100930.31
2023-01-25T16:04:22.002Z,100934.28
2023-01-25T16:06:51.933Z,100933.46
2023-01-25T16:09:26.850Z,100931.39
2023-01-25T16:12:07.664Z,100931.35
2023-01-25T16:14:36.277Z,100929.85
2023-01-25T16:17:08.132Z,100927.23
2023-01-25T16:19:40.147Z,100928.75
2023-01-25T16:22:08.764Z,100927.59
2023-01-25T16:24:39.868Z,100929.23
2023-01-25T16:27:25.568Z,100931.48
2023-01-25T16:29:59.852Z,100931.79
2023-01-25T16:32:32.447Z,100925.08
2023-01-25T16:35:03.775Z,100929.41
2023-01-25T16:37:36.920Z,100929.77
2023-01-25T16:40:36.760Z,100929.17
2023-01-25T16:43:10.293Z,100925.55
2023-01-25T16:45:44.925Z,100922.98
2023-01-25T16:51:12.810Z,100920.45
2023-01-25T16:53:42.526Z,100920.64
2023-01-25T16:56:17.872Z,100917.02
2023-01-25T16:58:46.083Z,100921.09
2023-01-25T17:01:15.024Z,100922.55
2023-01-25T17:03:43.656Z,100923.68
2023-01-25T17:06:24.983Z,100920.89
2023-01-25T17:09:09.564Z,100921.33
2023-01-25T17:11:41.484Z,100920.39
2023-01-25T17:14:16.000Z,100918.91
2023-01-25T17:16:48.464Z,100917.02
2023-01-25T17:19:17.212Z,100918.83
2023-01-25T17:21:46.475Z,100918.39
2023-01-25T17:24:16.191Z,100920.17
2023-01-25T17:26:45.079Z,100915.98
2023-01-25T17:29:14.017Z,100915.35
2023-01-25T17:31:44.348Z,100913.39
2023-01-25T17:34:18.205Z,100911.43
2023-01-25T17:36:46.710Z,100910.42
2023-01-25T17:41:58.099Z,100911.25
2023-01-25T17:44:33.656Z,100911.83
2023-01-25T17:47:02.808Z,100908.45
2023-01-25T17:49:39.865Z,100906.48
2023-01-25T17:52:08.796Z,100905.27
2023-01-25T17:54:37.637Z,100903.37
2023-01-25T17:57:05.824Z,100900.36
2023-01-25T17:59:36.247Z,100902.06
2023-01-25T18:02:06.636Z,100901.26
2023-01-25T18:04:35.063Z,100901.80
2023-01-25T18:07:10.044Z,100902.36
2023-01-25T18:09:38.574Z,100902.92
2023-01-25T18:12:11.870Z,100903.84
2023-01-25T18:14:40.574Z,100907.73
2023-01-25T18:17:10.623Z,100910.70
2023-01-25T18:19:38.832Z,100914.20
2023-01-25T18:22:07.299Z,100913.33
2023-01-25T18:24:35.891Z,100911.79
2023-01-25T18:30:39.718Z,100910.17
2023-01-25T18:33:10.049Z,100909.13
2023-01-25T18:35:48.400Z,100914.70
2023-01-25T18:38:17.756Z,100914.95
2023-01-25T18:40:47.473Z,100915.85
2023-01-25T18:43:17.224Z,100918.94
2023-01-25T18:45:47.697Z,100921.52
2023-01-25T18:48:22.137Z,100915.74
2023-01-25T18:50:53.843Z,100911.09
2023-01-25T18:53:24.070Z,100909.98
2023-01-25T18:56:03.407Z,100906.84
2023-01-25T18:58:37.088Z,100904.23
2023-01-25T19:01:14.027Z,100904.06
2023-01-25T19:03:51.588Z,100900.95
2023-01-25T19:06:25.783Z,100897.52
2023-01-25T19:08:56.845Z,100896.79
2023-01-25T19:11:27.059Z,100899.66
2023-01-25T19:14:00.400Z,100903.24
2023-01-25T19:16:29.998Z,100899.55
2023-01-25T19:19:01.956Z,100899.84
2023-01-25T19:21:30.352Z,100901.36
2023-01-25T19:23:59.362Z,100899.77
2023-01-25T19:26:29.836Z,100896.08
2023-01-25T19:29:02.324Z,100897.92
2023-01-25T19:32:00.224Z,100897.58
2023-01-25T19:34:37.532Z,100896.02
2023-01-25T19:37:29.403Z,100892.13
2023-01-25T19:39:55.635Z,100889.08
2023-01-25T19:42:23.736Z,100887.55
2023-01-25T19:44:52.527Z,100887.90
2023-01-25T19:47:25.139Z,100887.39
2023-01-25T19:49:54.856Z,100888.36
2023-01-25T19:52:26.253Z,100886.64
2023-01-25T19:54:54.422Z,100884.73
2023-01-25T19:57:22.681Z,100881.57
2023-01-25T19:59:50.985Z,100878.13
2023-01-25T20:02:19.261Z,100872.99
2023-01-25T20:04:47.990Z,100869.86
2023-01-25T20:07:19.170Z,100872.55
2023-01-25T20:09:49.277Z,100878.49
2023-01-25T20:12:24.531Z,100874.95
2023-01-25T20:14:52.833Z,100870.42
2023-01-25T20:17:21.070Z,100874.22
2023-01-25T20:19:50.414Z,100869.20
2023-01-25T20:22:21.691Z,100869.86
2023-01-25T20:24:50.208Z,100872.77
2023-01-25T20:27:20.017Z,100871.68
2023-01-25T20:29:53.922Z,100874.10
2023-01-25T20:32:32.291Z,100880.73
2023-01-25T20:35:03.705Z,100877.80
2023-01-25T20:37:32.051Z,100876.74
2023-01-25T20:40:00.532Z,100873.02
2023-01-25T20:42:28.725Z,100874.48
2023-01-25T20:44:57.244Z,100875.41
2023-01-25T20:47:25.564Z,100875.17
2023-01-25T20:49:53.910Z,100875.83
2023-01-25T20:52:22.170Z,100875.76
2023-01-25T20:54:52.445Z,100875.67
2023-01-25T20:57:20.753Z,100873.77
2023-01-25T20:59:49.710Z,100875.42
2023-01-25T21:02:18.767Z,100872.02
2023-01-25T21:04:47.311Z,100868.50
2023-01-25T21:07:15.518Z,100866.03
2023-01-25T21:09:46.649Z,100864.54
2023-01-25T21:12:15.736Z,100864.33
2023-01-25T21:14:44.252Z,100862.69
2023-01-25T21:17:12.596Z,100862.83
2023-01-25T21:19:40.893Z,100861.98
2023-01-25T21:22:09.090Z,100862.23
2023-01-25T21:24:37.916Z,100856.80
2023-01-25T21:27:08.172Z,100852.94
2023-01-25T21:29:36.773Z,100853.64
2023-01-25T21:32:06.527Z,100853.30
2023-01-25T21:34:35.301Z,100847.45
2023-01-25T21:37:04.083Z,100843.06
2023-01-25T21:39:32.252Z,100836.61
2023-01-25T21:42:00.412Z,100837.10
2023-01-25T21:44:47.634Z,100834.35
2023-01-25T21:47:29.245Z,100829.33
2023-01-25T21:50:17.489Z,100831.30
2023-01-25T21:52:45.869Z,100822.98
2023-01-25T21:55:14.170Z,100819.58
2023-01-25T21:57:47.295Z,100814.77
2023-01-25T22:00:16.536Z,100809.92
2023-01-25T22:02:44.822Z,100809.67
2023-01-25T22:05:13.187Z,100804.96
2023-01-25T22:07:42.062Z,100799.61
2023-01-25T22:10:11.596Z,100800.57
2023-01-25T22:12:40.137Z,100796.02
2023-01-25T22:15:09.056Z,100798.20
2023-01-25T22:17:39.445Z,100799.33
2023-01-25T22:20:08.913Z,100803.59
2023-01-25T22:22:37.427Z,100792.63
2023-01-25T22:25:08.986Z,100794.64
2023-01-25T22:27:50.993Z,100792.99
2023-01-25T22:30:19.175Z,100791.77
2023-01-25T22:32:47.977Z,100794.77
2023-01-25T22:35:16.097Z,100792.90
2023-01-25T22:37:44.222Z,100795.64
2023-01-25T22:40:13.292Z,100797.99
2023-01-25T22:42:41.930Z,100796.10
2023-01-25T22:45:10.417Z,100799.60
2023-01-25T22:47:38.666Z,100791.16
2023-01-25T22:50:07.599Z,100789.63
2023-01-25T22:52:35.780Z,100789.04
2023-01-25T22:55:07.505Z,100783.20
2023-01-25T22:57:36.138Z,100779.05
2023-01-25T23:00:05.082Z,100783.23
2023-01-25T23:02:33.427Z,100782.31
2023-01-25T23:05:01.818Z,100772.27
2023-01-25T23:07:30.275Z,100776.92
2023-01-25T23:09:58.330Z,100770.77
2023-01-25T23:12:26.456Z,100768.32
2023-01-25T23:14:55.062Z,100770.32
2023-01-25T23:17:42.714Z,100764.75
2023-01-25T23:20:12.424Z,100768.30
2023-01-25T23:22:41.184Z,100768.52
2023-01-25T23:25:10.917Z,100768.38
2023-01-25T23:27:39.103Z,100766.63
2023-01-25T23:30:09.545Z,100766.74
2023-01-25T23:32:38.531Z,100761.18
2023-01-25T23:35:07.663Z,100760.41
2023-01-25T23:37:35.809Z,100763.97
2023-01-25T23:40:04.589Z,100759.25
2023-01-25T23:42:32.992Z,100756.94
2023-01-25T23:45:01.582Z,100751.63
2023-01-25T23:47:31.221Z,100748.56
2023-01-25T23:49:59.516Z,100744.05
2023-01-25T23:52:27.779Z,100743.50
2023-01-25T23:54:56.048Z,100741.69
2023-01-25T23:57:24.443Z,100744.96
2023-01-25T23:59:52.831Z,100748.75
